Time;durP1;ratioP1;P1;durP2;ratioP2;P2;SDS_P1;SDS_P2;PMS_P1;PMS_P2;Temp;Humidity;BMP_temperature;BMP_pressure;BME280_temperature;BME280_humidity;BME280_pressure;Samples;Min_cycle;Max_cycle;Signal;HPM_P1;HPM_P2
2021/12/10 00:00:39;;;;;;;2.80;1.83;;;9.10;56.10;;;;;;4968871;28;20501;-57
2021/12/10 00:03:11;;;;;;;5.87;2.07;;;9.00;55.70;;;;;;4963375;28;20202;-56
2021/12/10 00:05:44;;;;;;;2.73;1.70;;;8.80;56.40;;;;;;4963305;28;20529;-57
2021/12/10 00:08:10;;;;;;;4.90;2.00;;;8.70;56.40;;;;;;4966361;28;20533;-56
2021/12/10 00:10:40;;;;;;;7.23;1.60;;;8.70;56.80;;;;;;4971814;28;20537;-56
2021/12/10 00:13:07;;;;;;;4.80;2.30;;;8.80;56.60;;;;;;4971769;28;20215;-56
2021/12/10 00:15:36;;;;;;;10.30;2.30;;;8.50;56.70;;;;;;4963679;28;20509;-56
2021/12/10 00:18:05;;;;;;;3.30;1.50;;;8.40;56.90;;;;;;4964473;28;20494;-55
2021/12/10 00:20:33;;;;;;;3.33;1.40;;;8.50;56.80;;;;;;4971705;28;20939;-56
2021/12/10 00:23:06;;;;;;;4.63;1.70;;;8.70;56.50;;;;;;4975074;28;20942;-56
2021/12/10 00:25:38;;;;;;;3.97;1.57;;;8.80;56.30;;;;;;4964843;28;20469;-57
2021/12/10 00:28:18;;;;;;;1.87;1.60;;;8.90;55.90;;;;;;4962855;28;20450;-56
2021/12/10 00:31:17;;;;;;;2.27;1.50;;;9.00;55.30;;;;;;4962376;28;20451;-56
2021/12/10 00:33:52;;;;;;;3.53;1.70;;;8.60;55.30;;;;;;4953473;28;20520;-56
2021/12/10 00:36:18;;;;;;;2.10;1.77;;;8.50;55.60;;;;;;4962997;28;20510;-56
2021/12/10 00:38:43;;;;;;;3.57;2.13;;;8.70;55.70;;;;;;4969054;28;20482;-56
2021/12/10 00:41:10;;;;;;;4.20;1.77;;;8.80;55.40;;;;;;4969440;28;20461;-56
2021/12/10 00:43:37;;;;;;;3.57;1.73;;;8.80;55.10;;;;;;4968829;28;20195;-56
2021/12/10 00:46:03;;;;;;;5.53;2.00;;;8.90;55.70;;;;;;4969240;28;20435;-56
2021/12/10 00:48:29;;;;;;;2.87;1.83;;;8.90;54.60;;;;;;4972333;28;20456;-56
2021/12/10 00:50:57;;;;;;;5.00;1.63;;;8.90;54.40;;;;;;4962001;28;20200;-56
2021/12/10 00:53:23;;;;;;;4.50;1.80;;;8.90;54.20;;;;;;4965646;28;20211;-56
2021/12/10 00:55:50;;;;;;;2.80;1.40;;;8.70;54.10;;;;;;4953802;28;20913;-55
2021/12/10 00:58:17;;;;;;;4.30;1.80;;;8.60;54.20;;;;;;4965382;28;20509;-56
2021/12/10 01:00:47;;;;;;;4.80;1.70;;;8.80;54.40;;;;;;4969029;28;20503;-56
2021/12/10 01:03:17;;;;;;;3.70;1.20;;;8.90;54.10;;;;;;4961413;28;20439;-55
2021/12/10 01:05:47;;;;;;;3.77;1.70;;;9.00;53.60;;;;;;4969334;28;20442;-56
2021/12/10 01:08:13;;;;;;;2.87;1.27;;;9.10;53.50;;;;;;4970812;28;20493;-56
2021/12/10 01:10:47;;;;;;;6.50;2.07;;;9.10;53.10;;;;;;4959654;28;20444;-56
2021/12/10 01:13:18;;;;;;;2.60;1.40;;;9.10;52.90;;;;;;4965563;28;20218;-58
2021/12/10 01:16:07;;;;;;;1.47;1.13;;;9.10;52.60;;;;;;4971291;28;20926;-56
2021/12/10 01:24:19;;;;;;;2.60;1.50;;;8.50;52.60;;;;;;4976169;28;20438;-56
2021/12/10 01:29:19;;;;;;;4.13;1.43;;;8.60;52.50;;;;;;4966923;28;20530;-56
2021/12/10 01:31:47;;;;;;;2.10;1.00;;;8.50;52.80;;;;;;4968540;28;20993;-56
2021/12/10 01:34:12;;;;;;;3.43;1.57;;;8.30;53.50;;;;;;4966073;28;20434;-56
2021/12/10 01:36:39;;;;;;;1.87;1.47;;;8.40;53.60;;;;;;4965330;28;21088;-56
2021/12/10 01:39:09;;;;;;;3.23;1.20;;;8.50;53.40;;;;;;4963923;28;20231;-56
2021/12/10 01:41:37;;;;;;;2.87;1.40;;;8.50;53.30;;;;;;4964558;28;20930;-58
2021/12/10 01:44:14;;;;;;;5.40;1.50;;;8.40;53.60;;;;;;4963738;28;20934;-56
2021/12/10 01:46:40;;;;;;;2.60;1.50;;;8.40;54.00;;;;;;4960274;28;20483;-56
2021/12/10 01:49:09;;;;;;;3.03;1.30;;;8.30;53.90;;;;;;4963050;28;20460;-56
2021/12/10 01:51:37;;;;;;;2.60;1.60;;;8.40;53.60;;;;;;4963674;28;20426;-56
2021/12/10 01:54:08;;;;;;;2.63;1.47;;;8.10;54.20;;;;;;4968946;28;20529;-55
2021/12/10 01:56:36;;;;;;;6.90;1.80;;;7.50;54.40;;;;;;4969678;28;20434;-55
2021/12/10 01:59:07;;;;;;;3.07;1.80;;;7.10;56.00;;;;;;4963123;28;20926;-56
2021/12/10 02:01:40;;;;;;;2.60;1.93;;;7.20;56.50;;;;;;4960685;28;20443;-56
2021/12/10 02:04:08;;;;;;;5.40;1.70;;;7.30;56.30;;;;;;4965560;28;20449;-56
2021/12/10 02:06:34;;;;;;;3.43;1.43;;;7.30;56.00;;;;;;4966257;28;20434;-55
2021/12/10 02:09:01;;;;;;;2.63;1.43;;;7.10;56.70;;;;;;4960715;28;20535;-56
2021/12/10 02:11:27;;;;;;;4.50;1.77;;;7.20;57.10;;;;;;4973625;28;20462;-56
2021/12/10 02:13:52;;;;;;;3.03;2.17;;;6.90;57.80;;;;;;4968392;28;20984;-56
2021/12/10 02:16:19;;;;;;;3.37;1.90;;;6.80;59.10;;;;;;4975442;28;20207;-56
2021/12/10 02:18:45;;;;;;;3.37;1.87;;;6.90;59.40;;;;;;4973434;28;20249;-56
2021/12/10 02:21:11;;;;;;;4.67;2.00;;;7.00;59.30;;;;;;4972296;28;20517;-56
2021/12/10 02:23:39;;;;;;;4.30;1.63;;;6.90;59.60;;;;;;4976636;28;20533;-56
2021/12/10 02:26:08;;;;;;;2.87;1.70;;;6.70;59.70;;;;;;4967764;28;20199;-56
2021/12/10 02:28:35;;;;;;;4.70;2.00;;;6.40;60.20;;;;;;4970040;28;20767;-56
2021/12/10 02:31:00;;;;;;;3.60;1.80;;;6.40;61.10;;;;;;4967855;28;20470;-57
2021/12/10 02:33:27;;;;;;;4.63;2.10;;;6.60;60.60;;;;;;4963133;28;20443;-56
2021/12/10 02:35:53;;;;;;;3.30;2.20;;;6.50;60.20;;;;;;4973746;28;20644;-56
2021/12/10 02:38:20;;;;;;;4.53;2.00;;;6.70;60.20;;;;;;4964528;28;20486;-56
2021/12/10 02:40:50;;;;;;;3.60;1.83;;;6.70;59.70;;;;;;4972721;28;20473;-56
2021/12/10 02:43:18;;;;;;;4.00;2.00;;;6.70;59.60;;;;;;4968781;28;20453;-56
2021/12/10 02:45:49;;;;;;;2.23;1.70;;;6.70;59.80;;;;;;4966054;28;20530;-56
2021/12/10 02:48:14;;;;;;;2.23;1.70;;;6.90;59.30;;;;;;4967136;28;20914;-56
2021/12/10 02:50:40;;;;;;;3.90;1.67;;;6.90;59.00;;;;;;4965141;28;20501;-57
2021/12/10 02:53:08;;;;;;;3.30;1.70;;;7.00;59.00;;;;;;4965659;28;20257;-57
2021/12/10 02:55:35;;;;;;;5.13;2.07;;;7.00;58.90;;;;;;4966466;28;20483;-57
2021/12/10 02:58:06;;;;;;;3.20;2.30;;;7.00;58.80;;;;;;4968945;28;20562;-58
2021/12/10 03:00:38;;;;;;;7.70;1.83;;;7.00;58.70;;;;;;4969182;28;20463;-57
2021/12/10 03:03:04;;;;;;;4.63;2.13;;;7.00;58.50;;;;;;4972287;28;20868;-56
2021/12/10 03:05:30;;;;;;;3.40;2.10;;;7.00;58.60;;;;;;4968625;28;20530;-57
2021/12/10 03:07:57;;;;;;;5.80;2.60;;;7.10;58.70;;;;;;4972804;28;20522;-57
2021/12/10 03:10:26;;;;;;;4.40;1.70;;;7.00;58.40;;;;;;4968365;28;20195;-56
2021/12/10 03:12:52;;;;;;;2.80;1.90;;;7.10;58.50;;;;;;4970647;28;20438;-57
2021/12/10 03:15:21;;;;;;;3.47;2.20;;;7.20;58.20;;;;;;4969049;28;20435;-56
2021/12/10 03:17:49;;;;;;;7.03;3.70;;;6.90;58.40;;;;;;4970504;28;20208;-57
2021/12/10 03:20:19;;;;;;;5.67;2.23;;;6.70;59.00;;;;;;4972584;28;20438;-57
2021/12/10 03:22:44;;;;;;;5.83;1.93;;;6.70;59.00;;;;;;4969083;28;20447;-56
2021/12/10 03:25:13;;;;;;;3.27;1.70;;;6.60;58.80;;;;;;4971704;28;20439;-56
2021/12/10 03:27:39;;;;;;;6.90;2.60;;;6.30;58.50;;;;;;4973675;28;20262;-57
2021/12/10 03:30:09;;;;;;;4.87;1.63;;;6.20;59.40;;;;;;4967114;28;20486;-57
2021/12/10 03:32:36;;;;;;;6.60;2.40;;;6.00;59.40;;;;;;4969287;28;20431;-56
2021/12/10 03:35:09;;;;;;;4.23;1.90;;;5.90;60.60;;;;;;4982873;28;20808;-57
2021/12/10 03:37:36;;;;;;;3.80;1.97;;;5.90;60.30;;;;;;4971001;28;20509;-56
2021/12/10 03:40:05;;;;;;;7.87;2.30;;;6.00;59.80;;;;;;4963946;28;20436;-57
2021/12/10 03:42:30;;;;;;;4.17;1.87;;;6.20;59.50;;;;;;4967323;28;20914;-56
2021/12/10 03:44:56;;;;;;;5.93;1.70;;;6.40;58.60;;;;;;4968505;28;20435;-57
2021/12/10 03:47:22;;;;;;;4.30;2.37;;;6.50;58.40;;;;;;4969941;28;20282;-56
2021/12/10 03:49:48;;;;;;;6.07;2.00;;;6.50;58.40;;;;;;4971307;28;20322;-56
2021/12/10 03:52:14;;;;;;;3.00;2.30;;;6.60;58.20;;;;;;4969610;28;20227;-56
2021/12/10 03:54:39;;;;;;;4.23;1.90;;;6.60;58.30;;;;;;4968730;28;20963;-57
2021/12/10 03:57:06;;;;;;;3.53;1.80;;;6.60;58.00;;;;;;4966518;28;20203;-56
2021/12/10 03:59:34;;;;;;;4.07;2.60;;;6.60;58.00;;;;;;4967066;28;20223;-56
2021/12/10 04:01:59;;;;;;;3.57;2.53;;;6.60;58.10;;;;;;4969889;28;20460;-56
2021/12/10 04:04:31;;;;;;;4.40;2.03;;;6.70;58.30;;;;;;4973089;28;20940;-56
2021/12/10 04:06:58;;;;;;;5.93;2.47;;;6.70;58.00;;;;;;4972439;28;20187;-55
2021/12/10 04:09:25;;;;;;;4.67;2.40;;;6.70;57.90;;;;;;4957661;28;20440;-56
2021/12/10 04:11:53;;;;;;;2.77;2.17;;;6.50;58.30;;;;;;4970381;28;20434;-56
2021/12/10 04:14:19;;;;;;;4.93;1.90;;;6.20;58.70;;;;;;4961912;28;20434;-56
2021/12/10 04:16:45;;;;;;;3.03;1.80;;;6.10;58.80;;;;;;4969365;28;20439;-56
2021/12/10 04:19:13;;;;;;;4.00;2.20;;;5.70;59.10;;;;;;4969676;28;20482;-56
2021/12/10 04:21:41;;;;;;;5.63;2.10;;;5.40;59.70;;;;;;4958246;28;20443;-56
2021/12/10 04:24:19;;;;;;;6.90;2.07;;;5.10;60.80;;;;;;4971456;28;20451;-55
2021/12/10 04:26:47;;;;;;;3.83;2.27;;;4.80;62.40;;;;;;4968988;28;20422;-56
2021/12/10 04:29:13;;;;;;;4.50;3.60;;;4.60;63.20;;;;;;4965897;28;20434;-55
2021/12/10 04:31:39;;;;;;;7.70;3.73;;;4.60;64.10;;;;;;4966066;28;20443;-54
2021/12/10 04:34:06;;;;;;;4.97;2.27;;;4.60;64.00;;;;;;4967655;28;20443;-56
2021/12/10 04:36:32;;;;;;;5.17;2.43;;;4.50;65.20;;;;;;4969274;28;20431;-55
2021/12/10 04:38:58;;;;;;;3.77;2.57;;;4.50;65.20;;;;;;4969666;28;20540;-55
2021/12/10 04:41:24;;;;;;;3.43;2.50;;;4.40;65.00;;;;;;4962507;28;20447;-56
2021/12/10 04:43:51;;;;;;;7.00;2.50;;;4.50;65.20;;;;;;4969183;28;20188;-56
2021/12/10 04:46:17;;;;;;;3.67;3.20;;;4.80;64.50;;;;;;4964439;28;20822;-56
2021/12/10 04:48:54;;;;;;;3.33;2.60;;;5.10;63.50;;;;;;4966576;28;20427;-56
2021/12/10 04:51:27;;;;;;;5.50;2.80;;;5.20;62.40;;;;;;4964897;28;20549;-56
2021/12/10 04:53:55;;;;;;;3.43;2.43;;;5.00;62.40;;;;;;4969372;28;20546;-56
2021/12/10 04:56:21;;;;;;;6.37;2.70;;;5.10;62.10;;;;;;4967329;28;20427;-58
2021/12/10 04:58:47;;;;;;;4.57;2.77;;;5.30;61.40;;;;;;4967731;28;20518;-56
2021/12/10 05:01:14;;;;;;;5.90;3.00;;;5.30;61.50;;;;;;4967284;28;20442;-55
2021/12/10 05:03:40;;;;;;;4.07;2.77;;;5.30;60.90;;;;;;4965422;28;20461;-56
2021/12/10 05:06:06;;;;;;;7.57;2.60;;;5.20;61.40;;;;;;4966792;28;20813;-55
2021/12/10 05:08:35;;;;;;;4.43;2.37;;;5.00;61.90;;;;;;4962609;28;20438;-55
2021/12/10 05:11:02;;;;;;;4.90;2.33;;;4.90;62.40;;;;;;4964971;28;20270;-56
2021/12/10 05:13:28;;;;;;;5.20;2.80;;;5.00;62.50;;;;;;4966646;28;20474;-56
2021/12/10 05:15:58;;;;;;;3.20;2.70;;;5.00;62.10;;;;;;4966238;28;20470;-55
2021/12/10 05:18:29;;;;;;;3.07;2.77;;;4.90;62.30;;;;;;4964846;28;20469;-56
2021/12/10 05:20:55;;;;;;;5.10;2.43;;;4.90;62.70;;;;;;4964218;28;21238;-56
2021/12/10 05:23:21;;;;;;;3.77;3.10;;;4.80;63.00;;;;;;4964989;28;20820;-56
2021/12/10 05:25:48;;;;;;;4.80;2.87;;;5.00;62.30;;;;;;4960564;28;20478;-54
2021/12/10 05:28:14;;;;;;;5.00;2.90;;;4.90;61.90;;;;;;4965833;28;20929;-56
2021/12/10 05:30:40;;;;;;;5.03;2.87;;;4.90;62.20;;;;;;4961418;28;20434;-56
2021/12/10 05:33:07;;;;;;;4.07;3.63;;;4.90;61.70;;;;;;4961050;28;20986;-56
2021/12/10 05:35:34;;;;;;;6.17;3.30;;;4.70;62.10;;;;;;4965012;28;20497;-56
2021/12/10 05:38:00;;;;;;;5.90;3.43;;;4.80;62.20;;;;;;4961894;28;20485;-56
2021/12/10 05:40:26;;;;;;;5.00;3.60;;;4.80;62.00;;;;;;4963324;28;20435;-56
2021/12/10 05:42:52;;;;;;;3.80;3.40;;;4.70;62.20;;;;;;4965044;28;20438;-56
2021/12/10 05:45:20;;;;;;;5.33;3.40;;;4.50;63.00;;;;;;4963309;28;20449;-55
2021/12/10 05:47:46;;;;;;;4.30;3.40;;;4.50;63.60;;;;;;4972578;28;20449;-56
2021/12/10 05:50:15;;;;;;;5.23;3.77;;;4.60;63.30;;;;;;4966340;28;20444;-56
2021/12/10 05:52:41;;;;;;;8.30;4.30;;;4.90;62.50;;;;;;4962650;28;20842;-56
2021/12/10 05:55:08;;;;;;;7.97;3.63;;;5.10;61.40;;;;;;4964582;28;20526;-56
2021/12/10 05:57:34;;;;;;;7.57;4.50;;;5.20;60.90;;;;;;4972315;28;20191;-55
2021/12/10 06:00:00;;;;;;;10.47;4.63;;;5.20;60.80;;;;;;4969049;28;20438;-56
2021/12/10 06:02:26;;;;;;;10.13;4.60;;;5.20;60.50;;;;;;4972507;28;20199;-55
2021/12/10 06:04:51;;;;;;;10.17;4.77;;;5.00;61.10;;;;;;4970509;28;20195;-56
2021/12/10 06:07:18;;;;;;;8.17;4.80;;;5.10;61.40;;;;;;4973664;28;20191;-56
2021/12/10 06:09:44;;;;;;;11.70;5.63;;;5.20;61.00;;;;;;4972615;28;20721;-56
2021/12/10 06:12:10;;;;;;;9.50;4.97;;;5.50;60.50;;;;;;4970748;28;20442;-56
2021/12/10 06:14:36;;;;;;;5.40;4.80;;;5.70;60.30;;;;;;4969309;28;20587;-56
2021/12/10 06:17:01;;;;;;;5.73;4.20;;;5.80;60.20;;;;;;4967138;28;20451;-56
2021/12/10 06:19:27;;;;;;;9.03;3.93;;;5.90;60.00;;;;;;4963780;28;20233;-54
2021/12/10 06:21:53;;;;;;;10.90;5.77;;;6.10;60.00;;;;;;4967307;28;20205;-54
2021/12/10 06:24:19;;;;;;;9.47;5.10;;;6.50;62.60;;;;;;4968214;28;20187;-54
2021/12/10 06:26:45;;;;;;;5.83;4.47;;;6.90;64.50;;;;;;4971865;28;20198;-55
2021/12/10 06:29:11;;;;;;;9.53;5.60;;;7.30;63.00;;;;;;4966024;28;20450;-55
2021/12/10 06:31:36;;;;;;;5.47;4.43;;;7.50;60.50;;;;;;4987725;28;20423;-55
2021/12/10 06:34:03;;;;;;;5.90;4.53;;;7.60;59.10;;;;;;4972611;28;20187;-55
2021/12/10 06:36:29;;;;;;;6.07;4.40;;;7.40;58.20;;;;;;4970763;28;20202;-55
2021/12/10 06:38:55;;;;;;;5.03;4.33;;;7.30;58.10;;;;;;4968224;28;20475;-54
2021/12/10 06:41:21;;;;;;;6.03;4.40;;;6.90;58.00;;;;;;4959303;28;20957;-55
2021/12/10 06:43:47;;;;;;;6.03;4.37;;;6.70;58.80;;;;;;4966373;28;20199;-55
2021/12/10 06:46:14;;;;;;;7.10;5.00;;;6.70;58.80;;;;;;4965910;28;20785;-55
2021/12/10 06:48:40;;;;;;;7.90;5.23;;;6.60;58.20;;;;;;4966322;28;20462;-55
2021/12/10 06:51:15;;;;;;;11.03;5.73;;;6.80;58.50;;;;;;4967319;28;20462;-55
2021/12/10 06:53:43;;;;;;;6.63;5.20;;;7.00;57.90;;;;;;4964952;28;20469;-55
2021/12/10 06:56:09;;;;;;;8.07;6.23;;;7.10;57.80;;;;;;4968900;28;20431;-55
2021/12/10 06:58:35;;;;;;;7.43;5.50;;;7.20;57.30;;;;;;4965835;28;20493;-54
2021/12/10 07:01:13;;;;;;;11.10;5.97;;;7.10;56.70;;;;;;4960960;28;20431;-55
2021/12/10 07:03:40;;;;;;;12.03;5.10;;;6.70;57.60;;;;;;4964116;28;20442;-53
2021/12/10 07:06:07;;;;;;;11.87;6.47;;;6.60;58.30;;;;;;4963672;28;20439;-56
2021/12/10 07:08:34;;;;;;;6.23;5.47;;;6.40;58.20;;;;;;4967033;28;20933;-55
2021/12/10 07:11:01;;;;;;;9.87;6.00;;;6.50;58.60;;;;;;4966744;28;20594;-55
2021/12/10 07:13:27;;;;;;;8.50;5.97;;;6.70;58.20;;;;;;4968810;28;20431;-55
2021/12/10 07:15:53;;;;;;;8.23;5.70;;;6.60;57.90;;;;;;4962388;28;20458;-55
2021/12/10 07:18:22;;;;;;;11.23;6.23;;;6.70;58.10;;;;;;4967218;28;20569;-54
2021/12/10 07:20:48;;;;;;;10.03;5.90;;;6.70;57.80;;;;;;4968540;28;20454;-55
2021/12/10 07:23:14;;;;;;;11.67;7.13;;;6.70;58.00;;;;;;4970516;28;21496;-56
2021/12/10 07:25:40;;;;;;;9.03;6.30;;;6.50;58.20;;;;;;4964362;28;20432;-56
2021/12/10 07:28:06;;;;;;;9.30;6.60;;;6.20;57.70;;;;;;4963413;28;20430;-56
2021/12/10 07:30:33;;;;;;;7.90;6.27;;;5.60;58.90;;;;;;4967028;28;20266;-57
2021/12/10 07:32:58;;;;;;;9.03;6.70;;;4.80;61.10;;;;;;4964591;28;20530;-56
2021/12/10 07:35:24;;;;;;;8.37;6.10;;;4.50;63.40;;;;;;4963230;28;20518;-56
2021/12/10 07:37:51;;;;;;;8.50;6.60;;;4.80;63.30;;;;;;4964689;28;20198;-56
2021/12/10 07:40:20;;;;;;;11.40;6.97;;;5.10;62.60;;;;;;4962518;28;20208;-56
2021/12/10 07:42:47;;;;;;;12.77;6.87;;;5.20;61.80;;;;;;4958648;28;20479;-57
2021/12/10 07:45:16;;;;;;;12.03;7.90;;;5.20;61.30;;;;;;4960548;28;20438;-56
2021/12/10 07:47:42;;;;;;;14.53;7.30;;;5.30;61.30;;;;;;4966511;28;20934;-57
2021/12/10 07:50:15;;;;;;;9.33;7.30;;;5.30;61.70;;;;;;4966897;28;20444;-55
2021/12/10 07:52:41;;;;;;;8.80;7.13;;;5.30;61.40;;;;;;4961642;28;20439;-56
2021/12/10 07:55:10;;;;;;;10.50;6.77;;;5.50;61.00;;;;;;4961227;28;21083;-55
2021/12/10 07:57:36;;;;;;;12.80;7.50;;;5.30;60.70;;;;;;4964097;28;20478;-56
2021/12/10 08:00:05;;;;;;;9.07;6.87;;;5.60;61.50;;;;;;4970090;28;20593;-56
2021/12/10 08:02:30;;;;;;;8.70;6.53;;;6.00;60.10;;;;;;4968831;28;20439;-56
2021/12/10 08:04:56;;;;;;;10.47;7.20;;;6.10;59.00;;;;;;4970363;28;20497;-56
2021/12/10 08:07:22;;;;;;;10.70;7.37;;;6.00;58.80;;;;;;4957972;28;20645;-56
2021/12/10 08:09:48;;;;;;;8.70;6.00;;;5.90;59.00;;;;;;4961874;28;20439;-56
2021/12/10 08:12:14;;;;;;;9.17;5.90;;;6.00;59.10;;;;;;4970311;28;20438;-56
2021/12/10 08:14:39;;;;;;;9.00;6.20;;;5.70;59.10;;;;;;4972654;28;20200;-55
2021/12/10 08:17:05;;;;;;;9.23;6.50;;;5.70;59.10;;;;;;4973285;28;20506;-56
2021/12/10 08:19:31;;;;;;;10.70;5.90;;;5.80;59.20;;;;;;4970994;28;20636;-56
2021/12/10 08:21:58;;;;;;;7.40;5.97;;;5.90;58.80;;;;;;4971940;28;20435;-56
2021/12/10 08:24:24;;;;;;;11.80;6.13;;;5.90;58.30;;;;;;4966372;28;20543;-55
2021/12/10 08:26:49;;;;;;;9.13;5.53;;;5.80;58.30;;;;;;4966517;28;20538;-56
2021/12/10 08:29:16;;;;;;;6.60;5.30;;;5.80;58.50;;;;;;4961884;28;20206;-56
2021/12/10 08:31:42;;;;;;;8.90;5.30;;;5.80;58.60;;;;;;4973102;28;20278;-55
2021/12/10 08:34:08;;;;;;;8.23;6.10;;;5.60;58.30;;;;;;4971645;28;20428;-57
2021/12/10 08:36:35;;;;;;;10.10;6.60;;;5.50;58.90;;;;;;4971306;28;20442;-56
2021/12/10 08:39:01;;;;;;;8.93;5.73;;;5.70;58.70;;;;;;4961174;28;20482;-56
2021/12/10 08:41:31;;;;;;;8.63;6.20;;;5.70;58.60;;;;;;4958668;28;20534;-56
2021/12/10 08:43:57;;;;;;;10.10;5.03;;;6.00;58.10;;;;;;4961804;28;21417;-56
2021/12/10 08:46:25;;;;;;;8.93;6.00;;;6.10;57.70;;;;;;4964116;28;20533;-56
2021/12/10 08:48:51;;;;;;;10.73;5.90;;;6.00;57.10;;;;;;4959360;28;20435;-55
2021/12/10 08:51:24;;;;;;;7.13;5.00;;;5.70;57.20;;;;;;4965076;28;20455;-57
2021/12/10 08:53:50;;;;;;;7.70;5.70;;;5.60;58.20;;;;;;4960917;28;20479;-56
2021/12/10 08:56:17;;;;;;;8.27;5.90;;;5.60;57.70;;;;;;4962195;28;21008;-56
2021/12/10 08:58:42;;;;;;;8.87;5.90;;;5.80;57.90;;;;;;4962816;28;20529;-56
2021/12/10 09:01:12;;;;;;;8.47;5.50;;;5.90;57.50;;;;;;4966880;28;20435;-56
2021/12/10 09:03:38;;;;;;;6.77;5.10;;;6.10;57.30;;;;;;4963360;28;20563;-56
2021/12/10 09:06:07;;;;;;;7.60;5.60;;;6.30;56.90;;;;;;4963884;28;20434;-56
2021/12/10 09:08:33;;;;;;;7.33;5.17;;;6.20;56.30;;;;;;4965056;28;20224;-56
2021/12/10 09:11:00;;;;;;;8.80;6.60;;;6.10;56.90;;;;;;4958545;28;20436;-55
2021/12/10 09:13:25;;;;;;;8.47;6.17;;;6.20;57.30;;;;;;4966190;28;20492;-56
2021/12/10 09:15:57;;;;;;;8.90;7.30;;;6.30;56.80;;;;;;4967359;28;20434;-55
2021/12/10 09:18:23;;;;;;;8.60;5.90;;;6.50;56.20;;;;;;4961177;28;20278;-56
2021/12/10 09:20:51;;;;;;;8.93;5.73;;;6.30;56.40;;;;;;4960497;28;20489;-55
2021/12/10 09:23:22;;;;;;;6.80;4.87;;;6.30;56.20;;;;;;4961438;28;20477;-55
2021/12/10 09:25:50;;;;;;;5.90;4.20;;;6.30;56.20;;;;;;4959499;28;20443;-55
2021/12/10 09:28:16;;;;;;;4.77;3.60;;;6.30;56.20;;;;;;4966993;28;20930;-56
2021/12/10 09:30:46;;;;;;;6.00;4.30;;;6.40;56.20;;;;;;4964968;28;20427;-56
2021/12/10 09:33:12;;;;;;;5.60;4.30;;;6.50;56.20;;;;;;4964075;28;20435;-55
2021/12/10 09:35:38;;;;;;;8.23;4.50;;;6.50;55.90;;;;;;4958028;28;20455;-56
2021/12/10 09:38:05;;;;;;;7.87;5.03;;;6.50;55.80;;;;;;4960728;28;20225;-56
2021/12/10 09:40:40;;;;;;;5.17;3.87;;;6.60;55.80;;;;;;4962513;28;20479;-54
2021/12/10 09:43:08;;;;;;;5.20;3.67;;;6.70;55.40;;;;;;4962270;28;20442;-54
2021/12/10 09:45:37;;;;;;;6.90;4.27;;;6.70;54.30;;;;;;4952897;28;20575;-54
2021/12/10 09:48:05;;;;;;;4.63;3.73;;;6.80;54.60;;;;;;4963482;28;20454;-51
2021/12/10 09:50:34;;;;;;;7.87;4.00;;;6.50;54.70;;;;;;4963538;28;21035;-50
2021/12/10 09:53:00;;;;;;;5.43;4.03;;;6.50;55.00;;;;;;4962231;28;21320;-54
2021/12/10 09:55:27;;;;;;;7.00;4.47;;;6.30;54.70;;;;;;4960726;28;20991;-53
2021/12/10 09:57:54;;;;;;;6.37;4.70;;;6.40;55.20;;;;;;4960674;28;21001;-56
2021/12/10 10:00:29;;;;;;;7.07;4.50;;;6.50;55.30;;;;;;4968232;28;20438;-55
2021/12/10 10:02:56;;;;;;;5.07;3.80;;;6.50;55.40;;;;;;4964124;28;20484;-56
2021/12/10 10:05:26;;;;;;;5.50;3.73;;;6.60;55.50;;;;;;4957473;28;20497;-52
2021/12/10 10:07:57;;;;;;;5.63;4.20;;;6.70;55.20;;;;;;4962869;28;20866;-55
2021/12/10 10:10:24;;;;;;;4.47;4.03;;;6.80;55.20;;;;;;4967014;28;20439;-52
2021/12/10 10:12:52;;;;;;;6.13;4.67;;;6.90;54.60;;;;;;4964010;28;20443;-54
2021/12/10 10:15:32;;;;;;;5.60;4.00;;;7.00;54.50;;;;;;4965114;28;20932;-53
2021/12/10 10:18:00;;;;;;;14.90;3.80;;;6.90;54.00;;;;;;4958816;28;20498;-55
2021/12/10 10:20:29;;;;;;;6.67;4.93;;;7.20;54.20;;;;;;4963955;28;20450;-54
2021/12/10 10:22:55;;;;;;;10.50;4.37;;;7.00;53.50;;;;;;4965660;28;21110;-54
2021/12/10 10:25:26;;;;;;;5.30;4.03;;;7.10;54.20;;;;;;4964936;28;20434;-54
2021/12/10 10:27:52;;;;;;;6.80;4.10;;;7.40;54.20;;;;;;4959287;28;20204;-54
2021/12/10 10:30:31;;;;;;;4.73;3.80;;;7.50;53.60;;;;;;4959311;28;20446;-55
2021/12/10 10:33:00;;;;;;;6.67;4.20;;;7.70;54.10;;;;;;4963213;28;21016;-53
2021/12/10 10:35:30;;;;;;;6.77;3.60;;;7.80;53.00;;;;;;4963321;28;20447;-56
2021/12/10 10:37:59;;;;;;;3.20;2.67;;;7.60;53.40;;;;;;4965190;28;20826;-54
2021/12/10 10:40:40;;;;;;;5.67;3.17;;;7.60;53.30;;;;;;4969172;28;20795;-55
2021/12/10 10:43:06;;;;;;;6.20;3.50;;;7.60;53.80;;;;;;4965533;28;20438;-54
2021/12/10 10:45:35;;;;;;;6.97;3.57;;;7.70;53.30;;;;;;4966967;28;20792;-55
2021/12/10 10:48:03;;;;;;;6.87;3.37;;;7.70;53.40;;;;;;4964024;28;20802;-55
2021/12/10 10:50:35;;;;;;;4.20;2.97;;;7.70;53.30;;;;;;4966833;28;20428;-54
2021/12/10 10:53:11;;;;;;;5.87;3.97;;;7.70;53.20;;;;;;4966274;28;20435;-54
2021/12/10 10:55:41;;;;;;;4.33;3.13;;;7.60;53.10;;;;;;4966084;28;20475;-56
2021/12/10 10:58:12;;;;;;;3.80;2.90;;;7.50;53.50;;;;;;4966362;28;20894;-52
2021/12/10 11:00:59;;;;;;;3.97;2.90;;;7.40;53.30;;;;;;4962447;28;20443;-53
2021/12/10 11:03:36;;;;;;;5.40;3.00;;;7.50;53.10;;;;;;4962720;28;20793;-53
2021/12/10 11:06:04;;;;;;;5.27;3.80;;;7.50;53.00;;;;;;4960553;28;20441;-57
2021/12/10 11:08:38;;;;;;;7.43;3.57;;;7.60;53.40;;;;;;4970810;28;20541;-57
2021/12/10 11:11:15;;;;;;;5.17;4.10;;;7.60;53.10;;;;;;4955159;28;20447;-57
2021/12/10 11:13:43;;;;;;;5.10;3.43;;;7.30;53.30;;;;;;4964768;28;20540;-60
2021/12/10 11:16:18;;;;;;;5.40;3.60;;;7.20;53.80;;;;;;4972058;28;20457;-57
2021/12/10 11:18:50;;;;;;;6.67;2.93;;;7.20;53.80;;;;;;4965924;28;20524;-58
2021/12/10 11:21:31;;;;;;;4.63;3.17;;;7.20;53.50;;;;;;4962008;28;20443;-57
2021/12/10 11:24:16;;;;;;;4.47;2.67;;;7.50;53.30;;;;;;4968595;28;20452;-57
2021/12/10 11:26:46;;;;;;;3.77;3.07;;;7.40;52.70;;;;;;4971778;28;20442;-57
2021/12/10 11:29:36;;;;;;;3.63;2.63;;;7.30;52.30;;;;;;4961530;28;20446;-57
2021/12/10 11:32:13;;;;;;;3.70;2.77;;;7.20;52.40;;;;;;4964105;28;20445;-60
2021/12/10 11:34:50;;;;;;;3.23;2.00;;;7.30;51.80;;;;;;4968704;28;20443;-57
2021/12/10 11:37:37;;;;;;;5.60;3.30;;;7.10;52.00;;;;;;4960187;28;21385;-57
2021/12/10 11:40:03;;;;;;;3.90;2.50;;;6.90;52.60;;;;;;4962873;28;21010;-57
2021/12/10 11:42:38;;;;;;;2.30;1.90;;;7.00;52.60;;;;;;4967205;28;20558;-57
2021/12/10 11:45:29;;;;;;;3.80;2.47;;;6.90;53.10;;;;;;4964263;28;20449;-57
2021/12/10 11:48:04;;;;;;;3.80;2.40;;;7.10;53.10;;;;;;4964978;28;20455;-54
2021/12/10 11:50:30;;;;;;;3.10;1.73;;;7.20;52.10;;;;;;4965372;28;20919;-52
2021/12/10 11:53:04;;;;;;;2.80;2.33;;;7.30;52.30;;;;;;4966527;28;20954;-50
2021/12/10 11:55:32;;;;;;;2.70;1.77;;;7.30;51.60;;;;;;4967550;28;20481;-52
2021/12/10 11:57:57;;;;;;;3.23;2.00;;;7.20;51.50;;;;;;4965885;28;20510;-53
2021/12/10 12:00:31;;;;;;;2.83;1.83;;;7.10;51.20;;;;;;4967506;28;20435;-53
2021/12/10 12:03:01;;;;;;;1.80;1.20;;;7.30;51.90;;;;;;4968386;28;20195;-53
2021/12/10 12:05:30;;;;;;;3.43;1.40;;;7.10;50.00;;;;;;4969516;28;20525;-51
2021/12/10 12:08:00;;;;;;;1.93;1.23;;;6.90;50.90;;;;;;4970622;28;20818;-53
2021/12/10 12:10:38;;;;;;;1.77;1.17;;;7.00;51.10;;;;;;4969814;28;20446;-53
2021/12/10 12:13:33;;;;;;;2.93;1.80;;;7.30;52.10;;;;;;4971734;28;20434;-53
2021/12/10 12:16:13;;;;;;;1.00;1.00;;;7.20;52.80;;;;;;4968418;28;20921;-53
2021/12/10 12:18:43;;;;;;;1.87;1.23;;;6.90;54.00;;;;;;4966191;28;20490;-51
2021/12/10 12:27:14;;;;;;;1.10;0.97;;;6.50;59.40;;;;;;4970436;28;20462;-50
2021/12/10 12:29:55;;;;;;;1.97;1.30;;;6.50;60.60;;;;;;4968382;28;20439;-53
2021/12/10 12:32:31;;;;;;;3.90;2.33;;;6.50;61.40;;;;;;4970998;28;20896;-52
2021/12/10 12:35:10;;;;;;;2.03;1.53;;;6.40;61.30;;;;;;4968832;28;20434;-52
2021/12/10 12:37:36;;;;;;;2.40;1.50;;;6.20;62.00;;;;;;4962333;28;20873;-53
2021/12/10 12:40:04;;;;;;;2.00;1.23;;;5.80;63.40;;;;;;4968368;28;20482;-52
2021/12/10 12:42:40;;;;;;;3.70;1.43;;;5.60;65.00;;;;;;4966461;28;20198;-52
2021/12/10 12:45:16;;;;;;;1.97;1.40;;;5.60;65.90;;;;;;4970347;28;20438;-54
2021/12/10 12:47:45;;;;;;;1.80;1.37;;;5.60;66.10;;;;;;4969176;28;20449;-53
2021/12/10 12:50:23;;;;;;;1.90;1.40;;;5.80;65.60;;;;;;4966970;28;20451;-53
2021/12/10 12:52:53;;;;;;;2.80;1.73;;;6.00;65.90;;;;;;4964136;28;20779;-52
2021/12/10 12:55:36;;;;;;;3.10;1.70;;;6.10;65.90;;;;;;4965194;28;20506;-53
2021/12/10 12:58:11;;;;;;;2.13;1.20;;;5.90;65.60;;;;;;4967685;28;20446;-50
2021/12/10 13:01:03;;;;;;;2.50;1.17;;;5.90;66.50;;;;;;4966951;28;20458;-53
2021/12/10 13:04:07;;;;;;;1.10;1.00;;;5.90;66.90;;;;;;4966661;28;20439;-53
2021/12/10 13:06:55;;;;;;;2.47;1.47;;;6.00;66.60;;;;;;4963966;28;20454;-52
2021/12/10 13:09:38;;;;;;;5.43;1.40;;;5.50;67.40;;;;;;4963770;28;20454;-50
2021/12/10 13:12:19;;;;;;;1.40;1.30;;;5.30;69.60;;;;;;4969570;28;20442;-52
2021/12/10 13:14:57;;;;;;;3.53;1.67;;;5.40;69.90;;;;;;4959146;28;20456;-53
2021/12/10 13:17:35;;;;;;;3.90;1.73;;;5.90;69.10;;;;;;4966640;28;20972;-53
2021/12/10 13:20:05;;;;;;;2.83;1.60;;;5.90;68.80;;;;;;4961352;28;20537;-52